Accueil
METAR-TAF:

METAR-TAF

Aéroports :

Aéroport Le Mans-Arnage

Le Mans, France

latitude: 47-56N, longitude: 000-12E, altitude: 59 m

Observation

Le bulletin a été fait il y a 26 minutes, à 06:00 UTC
Vent 4 kt de ouest, variant entre sud-ouest et ouest/nord-ouest
Température 10°C
Humidité 82%
Pression 1014 hPa
Visibilité 10 km ou plus
pas de nuages en-dessous de 1500 mètres et pas de cumulonimbus.

METAR: LFRM 280600Z AUTO 26004KT 230V300 CAVOK 10/07 Q1014 NOSIG

Heure: 08:26 (06:26 UTC)

Prévision

Le bulletin a été fait il y a 1 heure et 26 minutes, à 05:00 UTC
Prévision valable du 28 à 06 UTC au 29 à 06 UTC
Vent 6 kt de ouest
Visibilité 10 km ou plus
pas de nuages en-dessous de 1500 mètres et pas de cumulonimbus.
Probabilité 30% :
Temporairement
du 29 à 03 UTC au 29 à 06 UTC
Visibilité: 2000 m
Nuages fragmentés à une hauteur de 200 ft
brume

TAF: LFRM 280500Z 2806/2906 27006KT CAVOK PROB30 TEMPO 2903/2906 2000 BR BKN002

Observations et prévisions météorologiques de plus de 4000 aéroports (messages METAR et TAF).

Les stations disponibles sont représentées par des disques jaunes et rouges sur la carte.

Passer la souris dessus pour voir le nom de la station.

Cliquer dessus pour voir les observations et prévisions météorologiques.

Pour changer de carte: cliquez sur les boutons verts avec une croix noire pour zoomer, sur le bouton vert avec un tiret pour effectuer un zoom arrière, ou sur les flèches vertes pour les cartes adjacentes.


METAR-TAF: